sensor_id;sensor_type;location;lat;lon;timestamp;temperature;humidity
21489;DHT22;10906;45.194;5.684;2023-04-03T05:01:38;8.80;99.90
21489;DHT22;10906;45.194;5.684;2023-04-03T05:04:25;8.80;99.90
21489;DHT22;10906;45.194;5.684;2023-04-03T05:07:09;8.80;99.90
21489;DHT22;10906;45.194;5.684;2023-04-03T05:09:54;8.80;99.90
21489;DHT22;10906;45.194;5.684;2023-04-03T05:12:39;8.80;99.90
21489;DHT22;10906;45.194;5.684;2023-04-03T05:15:23;8.70;99.90
21489;DHT22;10906;45.194;5.684;2023-04-03T05:18:08;8.80;99.90
21489;DHT22;10906;45.194;5.684;2023-04-03T05:20:52;8.80;99.90
21489;DHT22;10906;45.194;5.684;2023-04-03T05:23:37;8.70;99.90
21489;DHT22;10906;45.194;5.684;2023-04-03T05:26:21;8.80;99.90
21489;DHT22;10906;45.194;5.684;2023-04-03T05:29:06;8.70;99.90
21489;DHT22;10906;45.194;5.684;2023-04-03T05:31:51;8.90;99.90
21489;DHT22;10906;45.194;5.684;2023-04-03T05:35:27;8.70;99.90
21489;DHT22;10906;45.194;5.684;2023-04-03T05:38:05;9.30;99.90
21489;DHT22;10906;45.194;5.684;2023-04-03T05:40:50;8.80;99.90
21489;DHT22;10906;45.194;5.684;2023-04-03T05:43:34;7.10;99.90
21489;DHT22;10906;45.194;5.684;2023-04-03T05:46:25;8.80;99.90
21489;DHT22;10906;45.194;5.684;2023-04-03T05:49:09;9.00;99.90
21489;DHT22;10906;45.194;5.684;2023-04-03T05:51:54;9.80;99.90
21489;DHT22;10906;45.194;5.684;2023-04-03T05:54:38;8.80;99.90
21489;DHT22;10906;45.194;5.684;2023-04-03T05:57:23;8.90;99.90
21489;DHT22;10906;45.194;5.684;2023-04-03T06:00:12;8.90;99.90
21489;DHT22;10906;45.194;5.684;2023-04-03T06:02:58;8.90;99.90
21489;DHT22;10906;45.194;5.684;2023-04-03T06:05:45;8.90;99.90
21489;DHT22;10906;45.194;5.684;2023-04-03T06:08:39;9.00;99.90
21489;DHT22;10906;45.194;5.684;2023-04-03T06:11:26;8.90;99.90
21489;DHT22;10906;45.194;5.684;2023-04-03T06:14:11;10.60;99.90
21489;DHT22;10906;45.194;5.684;2023-04-03T06:16:56;9.00;99.90
21489;DHT22;10906;45.194;5.684;2023-04-03T06:19:43;9.30;99.90
21489;DHT22;10906;45.194;5.684;2023-04-03T06:22:27;9.00;99.90
21489;DHT22;10906;45.194;5.684;2023-04-03T06:25:14;9.50;99.90
21489;DHT22;10906;45.194;5.684;2023-04-03T06:27:58;9.10;99.90
21489;DHT22;10906;45.194;5.684;2023-04-03T06:30:48;9.10;99.90
21489;DHT22;10906;45.194;5.684;2023-04-03T06:33:36;9.20;99.90
21489;DHT22;10906;45.194;5.684;2023-04-03T06:36:36;9.30;99.90
21489;DHT22;10906;45.194;5.684;2023-04-03T06:39:26;9.10;99.90
21489;DHT22;10906;45.194;5.684;2023-04-03T06:42:18;9.20;99.90
21489;DHT22;10906;45.194;5.684;2023-04-03T06:45:03;9.90;99.90
21489;DHT22;10906;45.194;5.684;2023-04-03T06:47:55;9.20;99.90
21489;DHT22;10906;45.194;5.684;2023-04-03T06:50:59;9.20;99.90
21489;DHT22;10906;45.194;5.684;2023-04-03T06:53:52;8.70;99.90
21489;DHT22;10906;45.194;5.684;2023-04-03T06:56:37;10.40;99.90
21489;DHT22;10906;45.194;5.684;2023-04-03T06:59:27;9.30;99.90
21489;DHT22;10906;45.194;5.684;2023-04-03T07:02:17;9.40;99.90
21489;DHT22;10906;45.194;5.684;2023-04-03T07:05:08;9.60;99.90
21489;DHT22;10906;45.194;5.684;2023-04-03T07:07:53;9.60;99.90
21489;DHT22;10906;45.194;5.684;2023-04-03T07:10:38;9.80;99.90
21489;DHT22;10906;45.194;5.684;2023-04-03T07:13:23;9.70;99.90
21489;DHT22;10906;45.194;5.684;2023-04-03T07:16:15;9.60;99.90
21489;DHT22;10906;45.194;5.684;2023-04-03T07:19:09;9.50;99.90
21489;DHT22;10906;45.194;5.684;2023-04-03T07:21:54;9.70;99.90
21489;DHT22;10906;45.194;5.684;2023-04-03T07:24:39;9.70;99.90
21489;DHT22;10906;45.194;5.684;2023-04-03T07:27:26;9.70;99.90
21489;DHT22;10906;45.194;5.684;2023-04-03T07:30:11;9.70;99.90
21489;DHT22;10906;45.194;5.684;2023-04-03T07:32:58;9.90;99.90
21489;DHT22;10906;45.194;5.684;2023-04-03T07:35:43;9.90;99.90
21489;DHT22;10906;45.194;5.684;2023-04-03T07:38:39;9.90;99.90
21489;DHT22;10906;45.194;5.684;2023-04-03T07:41:24;9.30;99.90
21489;DHT22;10906;45.194;5.684;2023-04-03T07:44:15;10.00;99.90
21489;DHT22;10906;45.194;5.684;2023-04-03T07:47:09;10.00;99.90
21489;DHT22;10906;45.194;5.684;2023-04-03T07:49:54;10.10;99.90
21489;DHT22;10906;45.194;5.684;2023-04-03T07:52:45;9.60;99.90
21489;DHT22;10906;45.194;5.684;2023-04-03T07:55:34;10.20;99.90
21489;DHT22;10906;45.194;5.684;2023-04-03T07:58:24;8.60;99.90
21489;DHT22;10906;45.194;5.684;2023-04-03T08:01:17;10.20;99.90
21489;DHT22;10906;45.194;5.684;2023-04-03T08:04:01;10.10;99.90
21489;DHT22;10906;45.194;5.684;2023-04-03T08:06:54;10.20;99.90
21489;DHT22;10906;45.194;5.684;2023-04-03T08:09:55;10.20;99.90
21489;DHT22;10906;45.194;5.684;2023-04-03T08:12:40;10.10;99.90
21489;DHT22;10906;45.194;5.684;2023-04-03T08:15:36;10.20;99.90
21489;DHT22;10906;45.194;5.684;2023-04-03T08:18:20;10.20;99.90
21489;DHT22;10906;45.194;5.684;2023-04-03T08:21:23;10.30;99.90
21489;DHT22;10906;45.194;5.684;2023-04-03T08:27:36;9.60;99.90
21489;DHT22;10906;45.194;5.684;2023-04-03T08:30:29;10.30;99.90
21489;DHT22;10906;45.194;5.684;2023-04-03T08:33:22;10.30;99.90
21489;DHT22;10906;45.194;5.684;2023-04-03T08:36:15;10.40;99.90
21489;DHT22;10906;45.194;5.684;2023-04-03T08:39:07;10.40;99.90
21489;DHT22;10906;45.194;5.684;2023-04-03T08:41:52;10.40;99.90
21489;DHT22;10906;45.194;5.684;2023-04-03T08:48:27;10.70;99.90
21489;DHT22;10906;45.194;5.684;2023-04-03T08:51:22;10.10;99.90
21489;DHT22;10906;45.194;5.684;2023-04-03T08:54:27;9.90;99.90
21489;DHT22;10906;45.194;5.684;2023-04-03T08:57:58;10.90;99.90
21489;DHT22;10906;45.194;5.684;2023-04-03T09:00:25;9.80;99.90
21489;DHT22;10906;45.194;5.684;2023-04-03T09:03:21;10.90;99.90
21489;DHT22;10906;45.194;5.684;2023-04-03T09:06:23;10.10;99.90
21489;DHT22;10906;45.194;5.684;2023-04-03T09:09:35;11.00;99.90
21489;DHT22;10906;45.194;5.684;2023-04-03T09:12:44;11.10;99.90
21489;DHT22;10906;45.194;5.684;2023-04-03T09:15:34;10.50;99.90
21489;DHT22;10906;45.194;5.684;2023-04-03T09:18:44;11.30;99.90
21489;DHT22;10906;45.194;5.684;2023-04-03T09:21:45;11.40;99.90
21489;DHT22;10906;45.194;5.684;2023-04-03T09:24:43;11.40;99.90
21489;DHT22;10906;45.194;5.684;2023-04-03T09:27:45;11.50;99.90
21489;DHT22;10906;45.194;5.684;2023-04-03T09:31:05;11.40;99.90
21489;DHT22;10906;45.194;5.684;2023-04-03T09:34:48;11.50;99.90
21489;DHT22;10906;45.194;5.684;2023-04-03T09:37:46;11.50;99.90
21489;DHT22;10906;45.194;5.684;2023-04-03T09:41:25;11.50;99.90
21489;DHT22;10906;45.194;5.684;2023-04-03T09:46:38;11.60;99.90
21489;DHT22;10906;45.194;5.684;2023-04-03T09:49:32;11.50;99.90
21489;DHT22;10906;45.194;5.684;2023-04-03T09:53:32;11.60;99.90
21489;DHT22;10906;45.194;5.684;2023-04-03T09:57:13;11.80;99.90
21489;DHT22;10906;45.194;5.684;2023-04-03T10:00:00;11.80;99.90
21489;DHT22;10906;45.194;5.684;2023-04-03T10:03:04;12.00;99.90
21489;DHT22;10906;45.194;5.684;2023-04-03T10:06:32;12.80;99.90
21489;DHT22;10906;45.194;5.684;2023-04-03T10:09:34;12.30;99.90
21489;DHT22;10906;45.194;5.684;2023-04-03T10:12:37;12.50;99.90
21489;DHT22;10906;45.194;5.684;2023-04-03T15:30:39;18.90;91.70
21489;DHT22;10906;45.194;5.684;2023-04-03T15:33:25;17.80;92.40
21489;DHT22;10906;45.194;5.684;2023-04-03T15:36:13;17.00;93.30
21489;DHT22;10906;45.194;5.684;2023-04-03T15:45:48;16.30;93.60
21489;DHT22;10906;45.194;5.684;2023-04-03T16:07:44;14.10;97.10
21489;DHT22;10906;45.194;5.684;2023-04-03T16:10:32;13.80;97.80
21489;DHT22;10906;45.194;5.684;2023-04-03T16:13:22;13.60;98.60
21489;DHT22;10906;45.194;5.684;2023-04-03T16:16:12;13.70;99.00
21489;DHT22;10906;45.194;5.684;2023-04-03T16:19:20;13.60;98.40
21489;DHT22;10906;45.194;5.684;2023-04-03T16:22:09;13.60;97.70
21489;DHT22;10906;45.194;5.684;2023-04-03T16:24:54;13.40;97.70
21489;DHT22;10906;45.194;5.684;2023-04-03T16:27:41;13.40;98.50
21489;DHT22;10906;45.194;5.684;2023-04-03T16:30:55;13.30;99.10
21489;DHT22;10906;45.194;5.684;2023-04-03T16:33:40;14.30;98.80
21489;DHT22;10906;45.194;5.684;2023-04-03T16:36:25;13.00;98.20
21489;DHT22;10906;45.194;5.684;2023-04-03T16:39:09;13.00;98.20
21489;DHT22;10906;45.194;5.684;2023-04-03T16:41:54;12.90;98.60
21489;DHT22;10906;45.194;5.684;2023-04-03T16:44:38;12.90;98.10
21489;DHT22;10906;45.194;5.684;2023-04-03T16:47:23;12.90;98.20
21489;DHT22;10906;45.194;5.684;2023-04-03T16:50:15;12.80;98.60
21489;DHT22;10906;45.194;5.684;2023-04-03T16:52:59;12.80;98.60
21489;DHT22;10906;45.194;5.684;2023-04-03T16:55:44;12.80;98.50
21489;DHT22;10906;45.194;5.684;2023-04-03T16:58:29;12.70;98.40
21489;DHT22;10906;45.194;5.684;2023-04-03T17:01:18;12.70;98.50
21489;DHT22;10906;45.194;5.684;2023-04-03T17:04:03;12.60;98.60
21489;DHT22;10906;45.194;5.684;2023-04-03T17:06:47;12.50;98.60
21489;DHT22;10906;45.194;5.684;2023-04-03T17:09:32;12.50;98.60
21489;DHT22;10906;45.194;5.684;2023-04-03T17:12:26;12.40;98.80
21489;DHT22;10906;45.194;5.684;2023-04-03T17:15:11;12.30;98.80
21489;DHT22;10906;45.194;5.684;2023-04-03T17:17:55;12.30;99.40
21489;DHT22;10906;45.194;5.684;2023-04-03T17:20:42;12.20;99.60
21489;DHT22;10906;45.194;5.684;2023-04-03T17:23:29;12.20;99.60
21489;DHT22;10906;45.194;5.684;2023-04-03T17:26:14;12.10;99.40
21489;DHT22;10906;45.194;5.684;2023-04-03T17:28:58;12.00;99.50
21489;DHT22;10906;45.194;5.684;2023-04-03T17:31:43;12.00;99.30
21489;DHT22;10906;45.194;5.684;2023-04-03T17:34:27;12.00;99.50
21489;DHT22;10906;45.194;5.684;2023-04-03T17:37:12;11.90;99.30
21489;DHT22;10906;45.194;5.684;2023-04-03T17:39:56;11.90;99.30
21489;DHT22;10906;45.194;5.684;2023-04-03T17:42:46;11.80;99.10
21489;DHT22;10906;45.194;5.684;2023-04-03T17:47:02;11.80;99.30
21489;DHT22;10906;45.194;5.684;2023-04-03T17:50:31;12.10;99.10
21489;DHT22;10906;45.194;5.684;2023-04-03T18:00:03;13.00;99.40
21489;DHT22;10906;45.194;5.684;2023-04-03T18:02:51;11.50;98.50
21489;DHT22;10906;45.194;5.684;2023-04-03T18:05:40;11.40;98.70
21489;DHT22;10906;45.194;5.684;2023-04-03T18:08:24;11.40;98.60
21489;DHT22;10906;45.194;5.684;2023-04-03T18:11:19;11.30;98.50
21489;DHT22;10906;45.194;5.684;2023-04-03T18:14:29;11.30;98.50
21489;DHT22;10906;45.194;5.684;2023-04-03T18:17:24;11.30;98.00
21489;DHT22;10906;45.194;5.684;2023-04-03T18:20:12;12.60;99.40
21489;DHT22;10906;45.194;5.684;2023-04-03T18:22:58;10.90;97.50
21489;DHT22;10906;45.194;5.684;2023-04-03T18:25:43;11.00;98.80
21489;DHT22;10906;45.194;5.684;2023-04-03T18:28:28;11.00;98.20
21489;DHT22;10906;45.194;5.684;2023-04-03T18:31:15;11.00;98.10
21489;DHT22;10906;45.194;5.684;2023-04-03T18:34:00;11.00;98.20
21489;DHT22;10906;45.194;5.684;2023-04-03T18:36:45;10.90;98.40
21489;DHT22;10906;45.194;5.684;2023-04-03T18:39:30;10.90;98.40
21489;DHT22;10906;45.194;5.684;2023-04-03T18:42:18;10.80;98.30
21489;DHT22;10906;45.194;5.684;2023-04-03T18:45:09;10.80;98.30
21489;DHT22;10906;45.194;5.684;2023-04-03T18:47:57;10.70;97.60
21489;DHT22;10906;45.194;5.684;2023-04-03T18:50:42;10.60;97.90
21489;DHT22;10906;45.194;5.684;2023-04-03T18:53:27;10.60;97.70
21489;DHT22;10906;45.194;5.684;2023-04-03T18:56:11;10.50;97.60
21489;DHT22;10906;45.194;5.684;2023-04-03T18:58:55;10.60;97.40
21489;DHT22;10906;45.194;5.684;2023-04-03T19:01:40;10.40;97.60
21489;DHT22;10906;45.194;5.684;2023-04-03T19:04:26;10.30;97.80
21489;DHT22;10906;45.194;5.684;2023-04-03T19:07:10;9.60;96.90
21489;DHT22;10906;45.194;5.684;2023-04-03T19:09:55;10.10;96.90
21489;DHT22;10906;45.194;5.684;2023-04-03T19:13:08;10.10;97.00
21489;DHT22;10906;45.194;5.684;2023-04-03T19:16:06;10.30;95.50
21489;DHT22;10906;45.194;5.684;2023-04-03T19:18:50;10.00;96.10
21489;DHT22;10906;45.194;5.684;2023-04-03T19:21:38;9.90;96.80
21489;DHT22;10906;45.194;5.684;2023-04-03T19:24:24;10.00;95.40
21489;DHT22;10906;45.194;5.684;2023-04-03T19:27:08;9.90;96.60
21489;DHT22;10906;45.194;5.684;2023-04-03T19:29:53;9.90;96.00
21489;DHT22;10906;45.194;5.684;2023-04-03T19:32:37;9.80;96.10
21489;DHT22;10906;45.194;5.684;2023-04-03T19:35:22;9.70;95.80
21489;DHT22;10906;45.194;5.684;2023-04-03T19:38:09;9.70;95.60
21489;DHT22;10906;45.194;5.684;2023-04-03T19:41:14;9.90;96.30
21489;DHT22;10906;45.194;5.684;2023-04-03T19:48:18;9.70;95.00
21489;DHT22;10906;45.194;5.684;2023-04-03T19:51:11;9.20;96.40
21489;DHT22;10906;45.194;5.684;2023-04-03T19:54:02;9.40;97.30
21489;DHT22;10906;45.194;5.684;2023-04-03T19:56:53;9.40;95.90
21489;DHT22;10906;45.194;5.684;2023-04-03T19:59:38;9.30;95.90
21489;DHT22;10906;45.194;5.684;2023-04-03T20:02:24;9.30;96.90
21489;DHT22;10906;45.194;5.684;2023-04-03T20:05:17;9.20;96.40
21489;DHT22;10906;45.194;5.684;2023-04-03T20:08:04;9.30;95.20
21489;DHT22;10906;45.194;5.684;2023-04-03T20:11:15;9.20;95.90
21489;DHT22;10906;45.194;5.684;2023-04-03T20:14:02;9.90;95.50
21489;DHT22;10906;45.194;5.684;2023-04-03T20:16:53;9.10;95.50
21489;DHT22;10906;45.194;5.684;2023-04-03T20:20:18;9.10;95.80
21489;DHT22;10906;45.194;5.684;2023-04-03T20:23:05;9.10;95.80
21489;DHT22;10906;45.194;5.684;2023-04-03T20:25:54;8.40;95.40
21489;DHT22;10906;45.194;5.684;2023-04-03T20:28:39;9.00;95.00
21489;DHT22;10906;45.194;5.684;2023-04-03T20:31:24;9.00;95.70
21489;DHT22;10906;45.194;5.684;2023-04-03T20:34:12;9.00;95.20
21489;DHT22;10906;45.194;5.684;2023-04-03T20:40:59;9.00;94.80
21489;DHT22;10906;45.194;5.684;2023-04-03T20:43:49;8.80;95.70
21489;DHT22;10906;45.194;5.684;2023-04-03T20:47:15;7.50;92.90
21489;DHT22;10906;45.194;5.684;2023-04-03T20:50:30;8.80;95.10
21489;DHT22;10906;45.194;5.684;2023-04-03T20:53:25;8.80;95.50
21489;DHT22;10906;45.194;5.684;2023-04-03T20:56:10;8.70;95.40
21489;DHT22;10906;45.194;5.684;2023-04-03T20:58:55;8.80;95.40
21489;DHT22;10906;45.194;5.684;2023-04-03T21:01:46;8.70;95.90
21489;DHT22;10906;45.194;5.684;2023-04-03T21:05:06;8.60;96.40
21489;DHT22;10906;45.194;5.684;2023-04-03T21:21:22;8.50;95.30
21489;DHT22;10906;45.194;5.684;2023-04-03T21:24:16;8.40;95.30
21489;DHT22;10906;45.194;5.684;2023-04-03T21:27:05;8.30;96.00
21489;DHT22;10906;45.194;5.684;2023-04-03T21:29:52;8.20;96.80
21489;DHT22;10906;45.194;5.684;2023-04-03T21:32:50;8.20;95.60
21489;DHT22;10906;45.194;5.684;2023-04-03T21:35:50;8.10;96.70
21489;DHT22;10906;45.194;5.684;2023-04-03T21:38:57;8.10;95.90
21489;DHT22;10906;45.194;5.684;2023-04-03T21:41:43;8.10;96.50
21489;DHT22;10906;45.194;5.684;2023-04-03T21:44:34;7.00;95.80
21489;DHT22;10906;45.194;5.684;2023-04-03T21:47:21;8.00;96.90
21489;DHT22;10906;45.194;5.684;2023-04-03T21:50:21;8.10;96.20
21489;DHT22;10906;45.194;5.684;2023-04-03T21:53:09;8.00;96.10
21489;DHT22;10906;45.194;5.684;2023-04-03T21:56:04;8.10;95.80
21489;DHT22;10906;45.194;5.684;2023-04-03T21:59:10;7.90;96.20
